WEATHER DATA

TODAY
Time Temp. Dewp. Hum. Wind dir Wind speed Wind gust Bar. 1h Prec. 24h Prec.
00:04 6.3 0 64 270 0.3 1.1 1011.2 0.0000 0.0000
00:24 5.9 -0.3 64 270 0.3 1.1 1011.4 0.0000 0.0000
00:44 5.6 -0.4 65 270 0.3 1.1 1011.4 0.0000 0.0000
00:54 5.5 -0.5 65 270 0.3 1.1 1011.4 0.0000 0.0000
01:04 5.5 -0.5 65 270 0.3 1.1 1011.4 0.0000 0.0000
01:14 5.5 -0.3 66 270 0.3 1.1 1011.5 0.0000 0.0000
01:24 5.5 -0.3 66 270 0.3 1.1 1011.4 0.0000 0.0000
01:35 5.5 -0.3 66 270 0.3 0.8 1011.5 0.0000 0.0000
01:45 5.5 -0.3 66 270 0.3 1.1 1011.5 0.0000 0.0000
01:54 5.5 -0.3 66 270 0.3 1.1 1011.6 0.0000 0.0000
02:05 5.5 -0.3 66 270 0.3 1.1 1011.6 0.0000 0.0000
02:15 5.5 -0.3 66 270 0.3 1.1 1011.6 0.0000 0.0000
02:25 5.6 -0.2 66 270 0.3 1.1 1011.8 0.0000 0.0000
02:35 5.8 0 66 270 0.3 1.1 1011.7 0.0000 0.0000
02:45 6 0.1 66 270 0.3 1.4 1011.9 0.0000 0.0000
02:55 6.1 0.2 66 270 0.3 2.2 1011.8 0.0000 0.0000
03:05 6.3 0.4 66 270 0.3 1.4 1011.8 0.0000 0.0000
03:15 6.4 0.5 66 286 0.8 1.4 1011.8 0.0000 0.0000
03:26 6.4 0.5 66 270 0.3 1.1 1011.9 0.0000 0.0000
03:35 6.5 0.8 67 270 0.3 1.1 1012 0.0000 0.0000
03:45 6.6 0.9 67 270 0.3 1.1 1012 0.0000 0.0000
03:56 6.7 1 67 270 0.3 1.1 1012.1 0.0000 0.0000
04:06 6.8 1.1 67 270 0.3 1.1 1012.2 0.0000 0.0000
04:18 6.8 1.1 67 270 0.3 1.1 1012.3 0.0000 0.0000
04:28 6.8 1.1 67 270 0.3 1.1 1012.1 0.0000 0.0000
04:38 6.8 1.3 68 270 0.3 1.4 1012.3 0.0000 0.0000
04:49 6.7 1.2 68 270 0.3 1.1 1012.2 0.0000 0.0000
04:58 6.7 1.2 68 270 0.3 1.1 1012.3 0.0000 0.0000
05:08 6.6 1.1 68 270 0.3 1.1 1012.5 0.0000 0.0000
05:18 6.5 1.2 69 270 0.3 1.1 1012.4 0.0000 0.0000
05:29 6.5 1.2 69 270 0.3 1.1 1012.5 0.0000 0.0000
05:39 6.5 1.2 69 270 0.3 0.8 1012.4 0.0000 0.0000
05:49 6.4 1.1 69 270 0.3 1.1 1012.5 0.0000 0.0000
05:59 6.4 1.3 70 270 0.3 1.1 1012.6 0.0000 0.0000
06:09 6.4 1.3 70 270 0.3 1.1 1012.6 0.0000 0.0000
06:19 6.4 1.3 70 270 0.3 1.1 1012.7 0.0000 0.0000
06:29 6.4 1.3 70 270 0.3 1.1 1012.7 0.0000 0.0000
06:40 6.4 1.3 70 308 0.3 1.1 1012.7 0.0000 0.0000
06:49 6.5 1.6 71 270 0.3 1.4 1012.7 0.0000 0.0000
06:59 6.6 1.7 71 270 0.3 1.4 1013 0.0000 0.0000
07:10 6.6 1.7 71 270 0.3 1.4 1013.2 0.0000 0.0000
07:21 6.7 1.6 70 270 0.3 1.1 1013.5 0.0000 0.0000
07:31 6.6 1.5 70 270 0.3 1.4 1013.7 0.0000 0.0000
07:41 6.6 1.5 70 270 0.3 1.1 1013.8 0.0000 0.0000
07:51 6.5 1.6 71 270 0.3 1.1 1014 0.0000 0.0000
08:02 6.5 1.6 71 270 0.3 1.1 1014.2 0.0000 0.0000
08:12 6.4 1.5 71 270 0.3 1.1 1014.3 0.0000 0.0000
08:22 6.4 1.5 71 270 0.3 1.1 1014.6 0.0000 0.0000
08:32 6.4 1.5 71 270 0.3 1.1 1014.6 0.0000 0.0000
08:42 6.4 1.5 71 270 0.3 1.1 1014.7 0.0000 0.0000
08:52 6.5 1.6 71 270 0.3 1.4 1014.8 0.0000 0.0000
09:02 6.5 1.6 71 270 0.3 1.1 1015 0.0000 0.0000
09:13 6.5 1.6 71 270 0.3 1.1 1014.9 0.0000 0.0000
09:22 6.6 1.7 71 270 0.3 1.1 1015.1 0.0000 0.0000
09:32 7 2.1 71 270 0.3 1.1 1015 0.0000 0.0000
09:42 7.7 2.8 71 326 0.3 1.9 1015 0.0000 0.0000
09:53 8.3 3.2 70 270 0.3 1.4 1015 0.0000 0.0000
10:03 8.4 2.8 68 345 0.8 3.3 1014.8 0.0000 0.0000
10:13 8.9 3.1 67 325 0.8 2.5 1015.1 0.0000 0.0000
10:23 9.1 3.3 67 306 0.3 1.9 1015.1 0.0000 0.0000
10:33 9.5 3.3 65 315 0.8 2.2 1015.1 0.0000 0.0000
10:43 10 3.5 64 315 0.8 1.4 1015 0.0000 0.0000
11:04 11 4 62 322 0.8 2.2 1015.1 0.0000 0.0000
11:13 11.2 4 61 315 0.8 2.2 1015.1 0.0000 0.0000
11:23 11 3.8 61 303 0.8 2.5 1015.3 0.0000 0.0000
11:34 11.4 3.7 59 309 0.8 2.2 1015.2 0.0000 0.0000
11:44 11.5 3.8 59 355 0.8 2.2 1014.9 0.0000 0.0000
11:54 11.5 3.8 59 326 0.8 1.9 1015.2 0.0000 0.0000
12:03 11.7 3.5 57 288 0.8 1.4 1015.3 0.0000 0.0000
12:14 11.4 3.4 58 270 0.8 1.9 1015.4 0.0000 0.0000
12:24 11.2 3.3 58 325 0.8 1.9 1015.4 0.0000 0.0000
12:44 10.8 2.9 58 288 0.8 2.2 1015.3 0.0000 0.0000
12:54 10.7 2.8 58 300 0.8 2.2 1015.3 0.0000 0.0000
13:04 10.5 2.6 58 285 0.8 1.9 1015.3 0.0000 0.0000
13:14 10.4 2.5 58 315 0.8 2.2 1015.3 0.0000 0.0000
13:25 10.4 2.5 58 299 0.8 1.9 1015.3 0.0000 0.0000
13:45 10.3 2.2 57 335 0.8 2.2 1015.3 0.0000 0.0000
13:54 10.3 2.4 58 286 0.8 1.4 1015.4 0.0000 0.0000
14:06 10.2 2.1 57 281 0.8 2.2 1015.2 0.0000 0.0000
14:17 10.4 2.3 57 315 0.8 2.2 1015.2 0.0000 0.0000
14:27 10.4 2.3 57 270 0.8 2.2 1015.3 0.0000 0.0000
14:37 10.6 2.7 58 315 0.8 1.9 1015.4 0.0000 0.0000
14:47 10.7 2.5 57 302 0.8 1.9 1015.4 0.0000 0.0000
14:57 10.8 2.6 57 270 0.8 2.2 1015.3 0.0000 0.0000
15:07 11.1 2.9 57 330 0.8 1.4 1015.3 0.0000 0.0000
15:17 11 2.6 56 288 0.8 1.4 1015.4 0.0000 0.0000
15:28 10.8 2.4 56 270 0.8 1.4 1015.5 0.0000 0.0000
15:37 10.6 2.2 56 281 0.8 2.2 1015.6 0.0000 0.0000
15:47 10.4 2 56 304 0.8 1.4 1015.4 0.0000 0.0000
15:58 10.3 1.9 56 270 0.8 1.9 1015.3 0.0000 0.0000
16:08 10.2 1.8 56 293 0.8 2.2 1015.2 0.0000 0.0000
16:18 10.1 1.7 56 295 0.8 1.9 1015.2 0.0000 0.0000
16:27 10 1.9 57 280 0.8 2.2 1015 0.0000 0.0000
16:38 10.1 1.7 56 259 0.8 1.4 1015.4 0.0000 0.0000
16:48 10 1.9 57 270 0.8 1.9 1015.4 0.0000 0.0000
16:58 9.9 1.8 57 270 0.3 1.4 1015.4 0.0000 0.0000
17:08 9.9 1.8 57 296 0.8 1.9 1015.5 0.0000 0.0000
17:19 9.8 1.7 57 291 0.8 1.9 1015.5 0.0000 0.0000

DAY STATISTIC

2019-02-19
TEMPERATURE
AVERAGE
8.1
HIGH
11.7
12:03
LOW
5.5
00:54
PRESSURE
AVERAGE
1013.8
HIGH
1015.6
15:37
LOW
1011.2
00:04
DEWPOINT
AVERAGE
1.7
HIGH
4.0
11:04
LOW
-0.5
00:54
HUMIDITY
AVERAGE
64
HIGH
71
06:49
LOW
56
15:17
WIND SPEED
AVERAGE
0.5
HIGH
0.8
03:15
WIND GUST
AVERAGE
1.5
HIGH
3.3
10:03
WIND DIRECTION
PREVAILING
W
73.5%
N
2.0
NE
0.0
E
0.0
SE
0.0
S
0.0
SW
0.0
W
73.5
NW
24.5
PRECIPITATION
RAIN HOUR
0.0
RAIN DAY
0.0
TEMPERATURE (°C)
LOW
5.5
HIGH
11.7
AVERAGE
8.1
PRESSURE (hpa)
LOW
1011.2
HIGH
1015.6
AVERAGE
1013.8
DEVICE